Time;durP1;ratioP1;P1;durP2;ratioP2;P2;SDS_P1;SDS_P2;PMS_P1;PMS_P2;Temp;Humidity;BMP_temperature;BMP_pressure;BME280_temperature;BME280_humidity;BME280_pressure;Samples;Min_cycle;Max_cycle;Signal;HPM_P1;HPM_P2
2022/08/27 00:00:16;;;;;;;29.08;17.38;;;19.40;99.90;;;;;;5073642;28;20048;-57
2022/08/27 00:02:43;;;;;;;28.10;16.58;;;19.40;99.90;;;;;;5074407;28;20024;-57
2022/08/27 00:05:11;;;;;;;31.75;18.63;;;19.40;99.90;;;;;;5077372;28;20048;-57
2022/08/27 00:07:38;;;;;;;29.65;16.33;;;19.40;99.90;;;;;;5077210;28;20032;-57
2022/08/27 00:10:06;;;;;;;31.50;17.50;;;19.40;99.90;;;;;;5076998;28;20539;-57
2022/08/27 00:12:33;;;;;;;25.25;16.55;;;19.50;99.90;;;;;;5077255;28;20040;-57
2022/08/27 00:15:00;;;;;;;36.75;19.80;;;19.50;99.90;;;;;;5077039;28;20033;-57
2022/08/27 00:17:26;;;;;;;33.22;18.25;;;19.50;99.90;;;;;;5076732;28;20024;-57
2022/08/27 00:19:52;;;;;;;29.13;18.05;;;19.40;99.90;;;;;;5077081;28;20386;-57
2022/08/27 00:22:18;;;;;;;36.13;18.13;;;19.30;99.90;;;;;;5058644;28;20036;-57
2022/08/27 00:24:44;;;;;;;33.55;18.15;;;19.30;99.90;;;;;;5077277;28;20021;-57
2022/08/27 00:27:10;;;;;;;30.08;17.38;;;19.30;99.90;;;;;;5076749;28;20075;-57
2022/08/27 00:29:36;;;;;;;29.20;16.95;;;19.30;99.90;;;;;;5058822;28;20044;-57
2022/08/27 00:32:03;;;;;;;28.92;17.20;;;19.20;99.90;;;;;;5076533;28;20086;-57
2022/08/27 00:34:30;;;;;;;28.25;17.85;;;19.20;99.90;;;;;;5076508;28;20540;-57
2022/08/27 00:36:56;;;;;;;27.05;17.02;;;19.10;99.90;;;;;;5076571;28;20470;-57
2022/08/27 00:39:22;;;;;;;21.38;15.57;;;19.10;99.90;;;;;;5076495;28;20024;-57
2022/08/27 00:41:48;;;;;;;24.17;17.13;;;19.20;99.90;;;;;;5076526;28;20020;-57
2022/08/27 00:44:14;;;;;;;28.48;17.48;;;19.10;99.90;;;;;;5076617;28;20055;-57
2022/08/27 00:46:53;;;;;;;31.83;19.17;;;19.10;99.90;;;;;;5076176;28;20024;-57
2022/08/27 00:49:24;;;;;;;36.13;19.10;;;19.10;99.90;;;;;;5076329;28;20051;-57
2022/08/27 00:51:58;;;;;;;31.20;18.42;;;19.10;99.90;;;;;;5058421;28;20028;-57
2022/08/27 00:54:25;;;;;;;28.67;18.13;;;19.10;99.90;;;;;;5076270;28;20029;-57
2022/08/27 00:56:51;;;;;;;29.58;18.63;;;19.00;99.90;;;;;;5076277;28;20035;-57
2022/08/27 00:59:20;;;;;;;27.75;18.88;;;19.00;99.90;;;;;;5076139;28;20055;-57
2022/08/27 01:04:32;;;;;;;26.02;18.90;;;18.90;99.90;;;;;;5076249;28;20025;-57
2022/08/27 01:07:00;;;;;;;31.33;19.42;;;18.90;99.90;;;;;;5075990;28;20036;-57
2022/08/27 01:09:26;;;;;;;28.88;18.38;;;18.90;99.90;;;;;;5075976;28;20017;-57
2022/08/27 01:11:54;;;;;;;32.08;17.75;;;18.90;99.90;;;;;;5075867;28;20056;-57
2022/08/27 01:14:20;;;;;;;35.75;17.80;;;18.90;99.90;;;;;;5075364;28;20037;-57
2022/08/27 01:16:53;;;;;;;27.33;17.65;;;18.90;99.90;;;;;;5076004;28;20123;-57
2022/08/27 01:19:57;;;;;;;32.13;16.63;;;18.80;99.90;;;;;;5055846;28;20021;-57
2022/08/27 01:22:56;;;;;;;24.17;15.82;;;18.80;99.90;;;;;;5046907;28;20478;-58
2022/08/27 01:25:23;;;;;;;27.10;17.00;;;18.80;99.90;;;;;;5055733;28;20033;-57
2022/08/27 01:27:50;;;;;;;27.00;17.90;;;18.80;99.90;;;;;;5063210;28;20363;-57
2022/08/27 01:30:19;;;;;;;39.38;18.67;;;18.70;99.90;;;;;;5075684;28;20035;-57
2022/08/27 01:32:46;;;;;;;26.50;17.00;;;18.70;99.90;;;;;;5075613;28;20082;-57
2022/08/27 01:35:14;;;;;;;30.50;18.92;;;18.60;99.90;;;;;;5075394;28;20091;-57
2022/08/27 01:37:44;;;;;;;35.58;19.77;;;18.60;99.90;;;;;;5075398;28;20107;-57
2022/08/27 01:40:10;;;;;;;26.92;18.27;;;18.60;99.90;;;;;;5075411;28;20029;-57
2022/08/27 01:42:41;;;;;;;32.40;18.98;;;18.60;99.90;;;;;;5075431;28;20028;-57
2022/08/27 01:45:18;;;;;;;31.98;17.60;;;18.60;99.90;;;;;;5075175;28;20024;-57
2022/08/27 01:47:45;;;;;;;28.63;18.33;;;18.60;99.90;;;;;;5075172;28;20020;-57
2022/08/27 01:50:18;;;;;;;32.20;17.77;;;18.60;99.90;;;;;;5074870;28;20051;-57
2022/08/27 01:52:45;;;;;;;30.05;18.50;;;18.60;99.90;;;;;;5075222;28;20021;-57
2022/08/27 01:55:14;;;;;;;30.77;17.98;;;18.60;99.90;;;;;;5057019;28;20025;-57
2022/08/27 01:57:41;;;;;;;28.48;18.25;;;18.60;99.90;;;;;;5074890;28;20033;-57
2022/08/27 02:00:12;;;;;;;33.17;19.17;;;18.60;99.90;;;;;;5057461;28;20017;-57
2022/08/27 02:02:40;;;;;;;35.25;19.95;;;18.60;99.90;;;;;;5074991;28;20059;-57
2022/08/27 02:05:07;;;;;;;26.95;18.50;;;18.50;99.90;;;;;;5074984;28;20024;-57
2022/08/27 02:07:33;;;;;;;27.65;17.73;;;18.50;99.90;;;;;;5074888;28;20028;-57
2022/08/27 02:09:59;;;;;;;31.08;17.60;;;18.40;99.90;;;;;;5074683;28;20028;-57
2022/08/27 02:12:25;;;;;;;37.13;18.50;;;18.40;99.90;;;;;;5074804;28;20107;-57
2022/08/27 02:14:51;;;;;;;27.92;17.70;;;18.40;99.90;;;;;;5074750;28;20085;-57
2022/08/27 02:17:17;;;;;;;39.47;19.88;;;18.40;99.90;;;;;;5074689;28;20067;-57
2022/08/27 02:19:43;;;;;;;29.05;19.13;;;18.30;99.90;;;;;;5074694;28;20029;-57
2022/08/27 02:22:09;;;;;;;29.75;18.70;;;18.20;99.90;;;;;;5074631;28;20039;-57
2022/08/27 02:24:34;;;;;;;29.77;18.52;;;18.30;99.90;;;;;;5074181;28;20103;-57
2022/08/27 02:27:01;;;;;;;30.63;17.40;;;18.30;99.90;;;;;;5074234;28;20467;-57
2022/08/27 02:29:27;;;;;;;33.78;17.63;;;18.40;99.90;;;;;;5074598;28;20033;-57
2022/08/27 02:31:53;;;;;;;30.67;17.63;;;18.30;99.90;;;;;;5074476;28;20063;-57
2022/08/27 02:34:19;;;;;;;34.75;18.88;;;18.30;99.90;;;;;;5074548;28;20052;-57
2022/08/27 02:36:46;;;;;;;34.80;19.05;;;18.40;99.90;;;;;;5074517;28;20082;-57
2022/08/27 02:39:12;;;;;;;42.28;20.67;;;18.30;99.90;;;;;;5074260;28;20090;-57
2022/08/27 02:41:38;;;;;;;33.10;20.40;;;18.40;99.90;;;;;;5074677;28;20071;-57
2022/08/27 02:44:04;;;;;;;31.23;19.48;;;18.30;99.90;;;;;;5074497;28;20032;-57
2022/08/27 02:46:30;;;;;;;30.08;19.05;;;18.30;99.90;;;;;;5074255;28;20493;-57
2022/08/27 02:48:56;;;;;;;29.70;20.15;;;18.30;99.90;;;;;;5074078;28;20103;-57
2022/08/27 02:51:22;;;;;;;27.98;18.63;;;18.30;99.90;;;;;;5074355;28;20032;-57
2022/08/27 02:53:48;;;;;;;27.90;18.27;;;18.30;99.90;;;;;;5074382;28;20151;-57
2022/08/27 02:56:14;;;;;;;23.90;18.92;;;18.30;99.90;;;;;;5074349;28;20020;-57
2022/08/27 02:58:40;;;;;;;28.10;19.92;;;18.20;99.90;;;;;;5074177;28;20020;-57
2022/08/27 03:01:06;;;;;;;34.15;20.98;;;18.20;99.90;;;;;;5074172;28;20443;-57
2022/08/27 03:03:32;;;;;;;31.17;20.40;;;18.20;99.90;;;;;;5074318;28;20381;-57
2022/08/27 03:05:58;;;;;;;31.48;21.52;;;18.30;99.90;;;;;;5074228;28;20056;-57
2022/08/27 03:08:26;;;;;;;36.45;21.83;;;18.20;99.90;;;;;;5073905;28;20573;-57
2022/08/27 03:10:53;;;;;;;35.47;21.83;;;18.20;99.90;;;;;;5074326;28;20496;-57
2022/08/27 03:13:19;;;;;;;34.42;21.88;;;18.10;99.90;;;;;;5074202;28;20116;-57
2022/08/27 03:15:45;;;;;;;36.33;22.48;;;18.00;99.90;;;;;;5074014;28;20557;-57
2022/08/27 03:18:17;;;;;;;34.83;22.10;;;18.10;99.90;;;;;;5074078;28;20040;-57
2022/08/27 03:20:47;;;;;;;37.25;21.08;;;18.10;99.90;;;;;;5073986;28;20099;-57
2022/08/27 03:23:14;;;;;;;31.73;20.33;;;18.10;99.90;;;;;;5073993;28;20028;-57
2022/08/27 03:25:44;;;;;;;36.35;20.23;;;18.10;99.90;;;;;;5074067;28;20104;-57
2022/08/27 03:28:13;;;;;;;31.42;19.98;;;18.10;99.90;;;;;;5074029;28;20119;-57
2022/08/27 03:30:39;;;;;;;32.33;19.17;;;18.00;99.90;;;;;;5073909;28;20494;-57
2022/08/27 03:33:06;;;;;;;26.50;19.63;;;18.00;99.90;;;;;;5074001;28;20482;-57
2022/08/27 03:35:32;;;;;;;33.22;18.83;;;18.00;99.90;;;;;;5073813;28;20029;-57
2022/08/27 03:37:58;;;;;;;30.65;19.13;;;17.90;99.90;;;;;;5077110;28;20032;-57
2022/08/27 03:40:24;;;;;;;32.70;19.23;;;17.90;99.90;;;;;;5077788;28;20024;-57
2022/08/27 03:42:50;;;;;;;33.15;20.67;;;17.90;99.90;;;;;;5077711;28;20139;-57
2022/08/27 03:45:16;;;;;;;28.30;19.00;;;17.90;99.90;;;;;;5059648;28;20526;-57
2022/08/27 03:47:42;;;;;;;27.45;19.42;;;17.80;99.90;;;;;;5077511;28;20025;-57
2022/08/27 03:50:09;;;;;;;29.58;20.90;;;17.90;99.90;;;;;;5077206;28;20124;-57
2022/08/27 03:52:36;;;;;;;32.55;19.27;;;18.00;99.90;;;;;;5077613;28;20048;-57
2022/08/27 03:55:03;;;;;;;31.75;19.67;;;18.00;99.90;;;;;;5077350;28;20063;-57
2022/08/27 03:57:30;;;;;;;30.27;20.42;;;17.90;99.90;;;;;;5077124;28;20024;-57
2022/08/27 03:59:56;;;;;;;30.33;20.92;;;17.90;99.90;;;;;;5077440;28;20063;-57
2022/08/27 04:02:22;;;;;;;32.17;21.77;;;17.90;99.90;;;;;;5077214;28;20028;-57
2022/08/27 04:04:47;;;;;;;34.67;21.23;;;17.90;99.90;;;;;;5077244;28;20024;-57
2022/08/27 04:07:13;;;;;;;31.48;21.52;;;17.90;99.90;;;;;;5077008;28;20033;-57
2022/08/27 04:09:39;;;;;;;33.33;21.17;;;17.90;99.90;;;;;;5077033;28;20474;-57
2022/08/27 04:12:05;;;;;;;36.38;21.00;;;17.90;99.90;;;;;;5076922;28;20109;-57
2022/08/27 04:14:32;;;;;;;44.05;20.90;;;17.90;99.90;;;;;;5077042;28;20048;-57
2022/08/27 04:16:58;;;;;;;32.65;21.23;;;18.00;99.90;;;;;;5076799;28;20108;-57
2022/08/27 04:19:26;;;;;;;33.70;21.25;;;17.90;99.90;;;;;;5076966;28;20059;-57
2022/08/27 04:21:52;;;;;;;34.92;22.02;;;17.90;99.90;;;;;;5076675;28;20059;-57
2022/08/27 04:24:18;;;;;;;34.42;21.73;;;17.90;99.90;;;;;;5076965;28;20130;-57
2022/08/27 04:26:46;;;;;;;35.13;22.30;;;17.90;99.90;;;;;;5076757;28;20144;-57
2022/08/27 04:29:12;;;;;;;34.20;21.85;;;17.90;99.90;;;;;;5076807;28;20455;-57
2022/08/27 04:31:38;;;;;;;37.75;21.15;;;17.90;99.90;;;;;;5076523;28;20035;-57
2022/08/27 04:34:06;;;;;;;34.35;21.67;;;17.90;99.90;;;;;;5076850;28;20027;-57
2022/08/27 04:36:32;;;;;;;36.20;21.90;;;17.90;99.90;;;;;;5076814;28;20020;-57
2022/08/27 04:38:58;;;;;;;44.15;23.30;;;18.00;99.90;;;;;;5076633;28;20382;-57
2022/08/27 04:41:26;;;;;;;32.38;21.73;;;18.10;99.90;;;;;;5076574;28;20028;-57
2022/08/27 04:43:58;;;;;;;31.50;20.85;;;18.00;99.90;;;;;;5076508;28;20650;-57
2022/08/27 04:46:33;;;;;;;41.72;23.38;;;18.10;99.90;;;;;;5076252;28;20021;-57
2022/08/27 04:49:02;;;;;;;37.55;23.45;;;18.20;99.90;;;;;;5075425;28;20052;-57
2022/08/27 04:51:28;;;;;;;34.33;22.98;;;18.30;99.90;;;;;;5076368;28;20114;-57
2022/08/27 04:53:55;;;;;;;46.72;23.88;;;18.40;99.90;;;;;;5076207;28;20028;-57
2022/08/27 04:56:22;;;;;;;33.42;23.02;;;18.40;99.90;;;;;;5076157;28;20380;-57
2022/08/27 04:58:50;;;;;;;34.63;24.13;;;18.30;99.90;;;;;;5076184;28;20067;-57
2022/08/27 05:01:22;;;;;;;35.10;23.58;;;18.30;99.90;;;;;;5075899;28;20103;-57
2022/08/27 05:03:48;;;;;;;38.95;24.45;;;18.40;99.90;;;;;;5076165;28;20024;-57
2022/08/27 05:06:14;;;;;;;31.08;22.10;;;18.40;99.90;;;;;;5075910;28;20071;-57
2022/08/27 05:08:41;;;;;;;35.03;22.55;;;18.40;99.90;;;;;;5075959;28;20036;-57
2022/08/27 05:11:09;;;;;;;41.65;23.85;;;18.50;99.90;;;;;;5075989;28;20080;-57
2022/08/27 05:13:36;;;;;;;44.13;25.30;;;18.60;99.90;;;;;;5057920;28;20050;-57
2022/08/27 05:16:05;;;;;;;38.03;25.08;;;18.60;99.90;;;;;;5075763;28;20122;-57
2022/08/27 05:18:32;;;;;;;42.83;26.95;;;18.80;99.90;;;;;;5075552;28;20025;-57
2022/08/27 05:20:59;;;;;;;53.75;25.90;;;18.90;99.90;;;;;;5075532;28;20051;-57
2022/08/27 05:23:26;;;;;;;48.92;25.70;;;19.00;99.90;;;;;;5075564;28;20031;-57
2022/08/27 05:25:53;;;;;;;81.22;30.60;;;19.10;99.90;;;;;;5075728;28;20036;-57
2022/08/27 05:28:21;;;;;;;84.97;30.45;;;19.20;99.90;;;;;;5075658;28;20195;-57
2022/08/27 05:30:51;;;;;;;70.97;29.23;;;19.40;99.90;;;;;;5075739;28;20031;-57
2022/08/27 05:33:22;;;;;;;68.15;27.80;;;19.40;99.90;;;;;;5075403;28;20056;-57
2022/08/27 05:35:51;;;;;;;67.00;28.17;;;19.50;99.90;;;;;;5075512;28;20029;-57
2022/08/27 05:38:17;;;;;;;50.90;25.75;;;19.60;99.90;;;;;;5075284;28;20037;-57
2022/08/27 05:40:44;;;;;;;51.78;26.48;;;19.70;99.90;;;;;;5075403;28;20031;-57
2022/08/27 05:43:14;;;;;;;54.00;25.88;;;19.80;99.90;;;;;;5075292;28;20438;-57
2022/08/27 05:45:48;;;;;;;52.10;24.92;;;19.90;99.90;;;;;;5075046;28;20110;-57
2022/08/27 05:48:15;;;;;;;49.33;25.73;;;20.00;99.90;;;;;;5074983;28;20064;-57
2022/08/27 05:50:44;;;;;;;54.85;25.00;;;20.10;99.90;;;;;;5073773;28;20178;-57
2022/08/27 05:53:11;;;;;;;41.10;24.27;;;20.20;99.90;;;;;;5074206;28;20492;-57
2022/08/27 05:55:43;;;;;;;46.05;24.48;;;20.20;99.90;;;;;;5073339;28;20031;-57
2022/08/27 06:01:03;;;;;;;43.28;22.90;;;20.30;99.90;;;;;;5074911;28;20029;-57
2022/08/27 06:01:03;;;;;;;44.53;25.05;;;20.30;99.90;;;;;;5075046;28;20028;-57
2022/08/27 06:03:31;;;;;;;54.67;25.70;;;20.30;99.90;;;;;;5074999;28;20071;-57
2022/08/27 06:06:01;;;;;;;45.80;24.88;;;20.40;99.90;;;;;;5074755;28;20055;-57
2022/08/27 06:08:27;;;;;;;49.00;25.23;;;20.50;99.90;;;;;;5074761;28;20067;-57
2022/08/27 06:10:55;;;;;;;53.03;23.75;;;20.60;99.90;;;;;;5071315;28;20025;-57
2022/08/27 06:13:22;;;;;;;37.95;24.00;;;20.80;99.90;;;;;;5074607;28;20430;-57
2022/08/27 06:15:48;;;;;;;39.40;21.73;;;21.00;99.90;;;;;;5074845;28;20040;-57
2022/08/27 06:18:14;;;;;;;40.53;22.27;;;21.00;99.90;;;;;;5074567;28;20020;-57
2022/08/27 06:20:40;;;;;;;47.03;22.90;;;21.00;99.90;;;;;;5093997;28;20355;-57
2022/08/27 06:23:06;;;;;;;53.78;23.55;;;21.20;99.90;;;;;;5075309;28;20150;-57
2022/08/27 06:25:32;;;;;;;36.72;21.67;;;21.30;99.90;;;;;;5062147;28;20111;-57
2022/08/27 06:27:58;;;;;;;46.55;22.98;;;21.50;99.90;;;;;;5067258;28;20032;-57
2022/08/27 06:30:24;;;;;;;44.97;21.48;;;21.80;99.90;;;;;;5069437;28;20124;-57
2022/08/27 06:32:51;;;;;;;43.60;22.27;;;22.10;99.90;;;;;;5078764;28;20023;-57
2022/08/27 06:35:17;;;;;;;41.15;21.75;;;22.40;99.90;;;;;;5078704;28;20035;-57
2022/08/27 06:37:44;;;;;;;34.25;20.40;;;22.70;99.90;;;;;;5094292;28;20020;-57
2022/08/27 06:40:11;;;;;;;36.88;22.40;;;23.00;99.90;;;;;;5094765;28;20035;-57
2022/08/27 06:42:37;;;;;;;46.05;22.23;;;23.30;99.90;;;;;;5093909;28;20024;-57
2022/08/27 06:45:04;;;;;;;39.63;20.88;;;23.50;99.90;;;;;;5094442;28;20377;-57
2022/08/27 06:47:31;;;;;;;38.80;20.50;;;23.80;99.90;;;;;;5087823;28;20021;-57
2022/08/27 06:49:58;;;;;;;35.28;19.42;;;24.30;99.90;;;;;;5057445;28;20081;-57
2022/08/27 06:52:24;;;;;;;40.60;21.73;;;24.50;99.90;;;;;;5068572;28;20104;-57
2022/08/27 06:54:50;;;;;;;33.45;20.65;;;24.80;99.90;;;;;;5094043;28;20127;-57
2022/08/27 06:57:16;;;;;;;36.55;19.42;;;25.00;99.90;;;;;;5094121;28;20020;-57
2022/08/27 06:59:43;;;;;;;37.17;19.25;;;25.30;99.90;;;;;;5094304;28;20036;-57
2022/08/27 07:02:28;;;;;;;45.45;23.48;;;25.60;99.90;;;;;;5094269;28;20055;-57
2022/08/27 07:05:06;;;;;;;27.40;18.73;;;25.80;99.90;;;;;;5094455;28;20024;-57
2022/08/27 07:07:33;;;;;;;34.03;18.90;;;26.00;99.90;;;;;;5094258;28;20032;-57
2022/08/27 07:09:59;;;;;;;34.97;19.88;;;26.10;99.90;;;;;;5076066;28;20043;-57
2022/08/27 07:12:25;;;;;;;31.25;18.50;;;26.30;99.90;;;;;;5096281;28;20032;-57
2022/08/27 07:14:51;;;;;;;29.38;17.77;;;26.50;99.90;;;;;;5095774;28;20028;-58
2022/08/27 07:17:17;;;;;;;32.15;18.25;;;26.60;99.90;;;;;;5101736;28;20478;-57
2022/08/27 07:19:44;;;;;;;28.13;17.42;;;26.70;99.90;;;;;;5119239;28;20373;-57
2022/08/27 07:22:10;;;;;;;31.35;17.13;;;27.10;99.90;;;;;;5118954;28;20110;-57
2022/08/27 07:24:37;;;;;;;23.83;16.15;;;27.20;99.90;;;;;;5114296;28;20031;-58
2022/08/27 07:27:02;;;;;;;26.00;16.50;;;27.20;99.90;;;;;;5090797;28;20032;-58
2022/08/27 07:29:32;;;;;;;26.23;16.90;;;27.20;99.90;;;;;;5097537;28;20028;-57
2022/08/27 07:31:59;;;;;;;27.63;15.35;;;27.60;99.90;;;;;;5096417;28;20029;-57
2022/08/27 07:34:29;;;;;;;28.30;16.35;;;27.80;99.90;;;;;;5097532;28;20111;-58
2022/08/27 07:36:55;;;;;;;25.95;15.23;;;27.90;99.50;;;;;;5098046;28;20020;-57
2022/08/27 07:39:21;;;;;;;23.50;14.40;;;28.10;97.50;;;;;;5097105;28;20035;-58
2022/08/27 07:44:31;;;;;;;27.75;14.38;;;28.50;92.30;;;;;;5095726;28;20028;-58
2022/08/27 07:46:57;;;;;;;31.80;15.38;;;28.90;91.70;;;;;;5097053;28;20032;-58
2022/08/27 07:49:26;;;;;;;28.92;15.63;;;29.10;90.50;;;;;;5097470;28;20044;-58
2022/08/27 07:51:52;;;;;;;31.40;15.82;;;29.10;92.60;;;;;;5097703;28;20036;-58
2022/08/27 07:54:21;;;;;;;28.00;16.27;;;29.00;92.00;;;;;;5097380;28;20024;-58
2022/08/27 07:56:47;;;;;;;31.40;15.68;;;29.00;89.70;;;;;;5097580;28;20112;-58
2022/08/27 07:59:13;;;;;;;27.80;14.52;;;29.30;90.70;;;;;;5097465;28;20469;-58
2022/08/27 08:01:41;;;;;;;25.33;13.00;;;29.70;87.20;;;;;;5097489;28;20461;-58
2022/08/27 08:04:08;;;;;;;28.80;13.48;;;30.10;83.30;;;;;;5079536;28;20020;-58
2022/08/27 08:06:43;;;;;;;25.17;13.13;;;30.00;78.90;;;;;;5096549;28;20028;-58
2022/08/27 08:09:10;;;;;;;26.40;14.85;;;29.90;78.50;;;;;;5096619;28;20024;-58
2022/08/27 08:11:37;;;;;;;25.52;14.05;;;30.30;81.60;;;;;;5096858;28;20028;-58
2022/08/27 08:14:02;;;;;;;24.05;13.10;;;30.50;85.70;;;;;;5097344;28;20059;-58
2022/08/27 08:16:28;;;;;;;33.92;14.23;;;30.80;81.20;;;;;;5097468;28;20529;-58
2022/08/27 08:18:54;;;;;;;24.35;13.55;;;30.60;78.40;;;;;;5114403;28;20465;-58
2022/08/27 08:21:20;;;;;;;28.58;12.88;;;30.80;76.80;;;;;;5117511;28;20461;-58
2022/08/27 08:23:48;;;;;;;26.48;13.73;;;30.50;76.80;;;;;;5116343;28;20026;-58
2022/08/27 08:26:15;;;;;;;19.35;12.32;;;30.60;78.00;;;;;;5117473;28;20034;-58
2022/08/27 08:28:40;;;;;;;25.30;12.90;;;31.10;80.60;;;;;;5102247;28;20067;-58
2022/08/27 08:31:07;;;;;;;27.30;13.43;;;31.20;69.80;;;;;;5097149;28;20028;-58
2022/08/27 08:33:34;;;;;;;18.38;10.98;;;31.20;73.40;;;;;;5096908;28;20031;-58
2022/08/27 08:36:10;;;;;;;23.98;11.80;;;31.40;67.50;;;;;;5096873;28;20462;-58
2022/08/27 08:38:37;;;;;;;26.65;13.02;;;31.80;72.10;;;;;;5096860;28;20077;-58
2022/08/27 08:41:05;;;;;;;22.77;11.07;;;31.90;67.40;;;;;;5096883;28;20115;-58
2022/08/27 08:43:41;;;;;;;28.60;13.48;;;32.00;66.50;;;;;;5096770;28;20024;-58
2022/08/27 08:46:16;;;;;;;21.23;12.57;;;32.40;65.40;;;;;;5097122;28;20607;-58
2022/08/27 08:48:46;;;;;;;21.70;11.88;;;32.40;64.90;;;;;;5096558;28;20052;-58
2022/08/27 08:51:22;;;;;;;30.63;12.55;;;32.30;64.60;;;;;;5096805;28;20034;-58
2022/08/27 08:54:02;;;;;;;23.63;12.15;;;32.70;66.80;;;;;;5096661;28;20075;-59
2022/08/27 08:56:36;;;;;;;17.23;10.90;;;33.20;61.50;;;;;;5096252;28;20032;-59
2022/08/27 08:59:07;;;;;;;29.92;12.65;;;33.20;61.10;;;;;;5096543;28;20028;-59
2022/08/27 09:01:34;;;;;;;31.23;12.18;;;33.00;58.40;;;;;;5096327;28;20462;-58
2022/08/27 09:04:03;;;;;;;29.13;12.40;;;33.20;62.40;;;;;;5096369;28;20300;-59
2022/08/27 09:06:41;;;;;;;24.08;10.90;;;33.20;58.60;;;;;;5096249;28;20032;-59
2022/08/27 09:09:20;;;;;;;19.20;9.57;;;33.40;57.30;;;;;;5096279;28;20047;-59
2022/08/27 09:12:21;;;;;;;23.95;10.93;;;33.80;57.90;;;;;;5096251;28;20028;-59
2022/08/27 09:14:50;;;;;;;;;;;33.60;55.90;;;;;;5094162;28;20085;-59
2022/08/27 09:17:16;;;;;;;24.08;10.23;;;33.90;59.50;;;;;;5099704;28;20353;-59
2022/08/27 09:19:42;;;;;;;30.65;11.25;;;34.20;55.20;;;;;;5116478;28;20055;-59
2022/08/27 09:22:27;;;;;;;29.38;12.10;;;34.50;55.30;;;;;;5116395;28;20020;-59
2022/08/27 09:25:14;;;;;;;30.20;11.07;;;34.80;55.80;;;;;;5116279;28;20428;-59
2022/08/27 09:27:42;;;;;;;27.45;11.55;;;34.50;54.40;;;;;;5109519;28;20040;-59
2022/08/27 09:30:19;;;;;;;20.10;9.63;;;34.40;53.50;;;;;;5095829;28;20043;-59
2022/08/27 09:32:55;;;;;;;23.85;10.55;;;34.30;54.20;;;;;;5096006;28;20290;-59
2022/08/27 09:35:24;;;;;;;24.27;10.48;;;35.00;53.70;;;;;;5095362;28;20028;-59
2022/08/27 09:37:53;;;;;;;23.50;11.63;;;35.30;53.70;;;;;;5095629;28;20036;-59
2022/08/27 09:40:32;;;;;;;22.83;10.30;;;35.50;52.70;;;;;;5095746;28;20028;-59
2022/08/27 09:43:23;;;;;;;24.92;10.75;;;35.70;51.30;;;;;;5095653;28;20393;-59
2022/08/27 09:45:55;;;;;;;24.15;10.30;;;35.40;52.70;;;;;;5095313;28;20051;-59
2022/08/27 09:48:30;;;;;;;22.25;10.75;;;35.60;51.30;;;;;;5095245;28;20393;-59
2022/08/27 09:51:00;;;;;;;27.60;10.07;;;35.80;52.00;;;;;;5095494;28;20024;-59
2022/08/27 09:53:36;;;;;;;23.90;11.18;;;35.80;53.00;;;;;;5095402;28;20031;-59
2022/08/27 09:56:06;;;;;;;25.42;9.65;;;35.60;50.20;;;;;;5095391;28;20028;-59
2022/08/27 09:58:48;;;;;;;29.00;10.32;;;35.20;50.30;;;;;;5095341;28;20020;-59
2022/08/27 10:01:21;;;;;;;22.83;10.00;;;35.40;52.20;;;;;;5095261;28;20074;-59
2022/08/27 10:03:48;;;;;;;25.73;10.18;;;35.70;51.80;;;;;;5095394;28;20020;-59
2022/08/27 10:06:26;;;;;;;33.22;11.75;;;35.50;51.30;;;;;;5094841;28;20388;-59
2022/08/27 10:08:56;;;;;;;21.00;9.80;;;35.80;50.80;;;;;;5095102;28;20028;-59
2022/08/27 10:11:37;;;;;;;33.17;11.40;;;35.90;51.00;;;;;;5095001;28;20020;-59
2022/08/27 10:14:13;;;;;;;20.92;9.50;;;36.10;50.20;;;;;;5095014;28;20531;-59
2022/08/27 10:17:04;;;;;;;27.08;10.27;;;36.10;49.20;;;;;;5095012;28;20404;-59
2022/08/27 10:19:56;;;;;;;28.02;10.48;;;36.40;49.30;;;;;;5074459;28;20059;-59
2022/08/27 10:23:04;;;;;;;28.35;10.43;;;36.60;48.70;;;;;;5074587;28;20020;-59
2022/08/27 10:25:42;;;;;;;17.00;8.45;;;36.20;48.80;;;;;;5068979;28;20049;-59
2022/08/27 10:28:28;;;;;;;20.40;9.15;;;36.70;49.90;;;;;;5084857;28;20051;-59
2022/08/27 10:31:12;;;;;;;26.63;10.30;;;36.90;47.20;;;;;;5094331;28;20040;-59
2022/08/27 10:34:17;;;;;;;22.15;9.90;;;36.80;47.20;;;;;;5094744;28;20107;-59
2022/08/27 10:36:58;;;;;;;22.60;8.73;;;37.10;47.50;;;;;;5094034;28;20044;-59
2022/08/27 10:39:39;;;;;;;22.58;9.05;;;37.20;46.40;;;;;;5094682;28;20039;-59
2022/08/27 10:42:23;;;;;;;20.17;8.43;;;36.90;47.50;;;;;;5094831;28;20084;-59
2022/08/27 10:45:04;;;;;;;18.63;8.73;;;37.20;46.10;;;;;;5094565;28;20020;-59
2022/08/27 10:47:48;;;;;;;14.57;8.50;;;36.40;47.50;;;;;;5093800;28;20083;-59
2022/08/27 10:50:20;;;;;;;26.33;8.40;;;37.30;47.00;;;;;;5094409;28;20036;-59
2022/08/27 10:52:54;;;;;;;19.08;7.93;;;37.00;45.50;;;;;;5094453;28;20035;-59
2022/08/27 10:55:32;;;;;;;17.73;7.55;;;37.20;45.10;;;;;;5094591;28;20035;-59
2022/08/27 10:58:38;;;;;;;17.15;7.28;;;37.70;45.40;;;;;;5094362;28;20068;-59
2022/08/27 11:01:11;;;;;;;20.58;7.38;;;37.10;42.50;;;;;;5076539;28;20044;-59
2022/08/27 11:04:05;;;;;;;17.05;7.57;;;36.50;40.40;;;;;;5094441;28;20024;-59
2022/08/27 11:06:40;;;;;;;20.90;9.52;;;36.40;42.10;;;;;;5094308;28;20111;-59
2022/08/27 11:09:14;;;;;;;17.08;7.03;;;37.00;44.10;;;;;;5094654;28;20036;-59
2022/08/27 11:11:47;;;;;;;19.67;7.43;;;37.10;41.80;;;;;;5094201;28;20444;-59
2022/08/27 11:14:46;;;;;;;21.15;8.00;;;37.20;41.40;;;;;;5094374;28;20060;-59
2022/08/27 11:17:36;;;;;;;18.70;7.20;;;37.10;41.30;;;;;;5096924;28;20067;-59
2022/08/27 11:20:21;;;;;;;21.85;7.13;;;37.60;40.50;;;;;;5114554;28;20023;-59
2022/08/27 11:23:00;;;;;;;12.73;5.50;;;37.90;39.20;;;;;;5114751;28;20027;-60
2022/08/27 11:25:27;;;;;;;14.20;4.95;;;37.70;37.50;;;;;;5114585;28;20373;-59
2022/08/27 11:27:55;;;;;;;23.38;6.22;;;37.60;37.50;;;;;;5106170;28;20055;-59
2022/08/27 11:30:36;;;;;;;15.50;5.28;;;37.50;33.70;;;;;;5094775;28;20028;-59
2022/08/27 11:33:31;;;;;;;24.65;5.60;;;36.80;34.30;;;;;;5094018;28;20028;-60
2022/08/27 11:36:32;;;;;;;14.57;5.63;;;36.10;36.70;;;;;;5094052;28;20027;-59
2022/08/27 11:39:31;;;;;;;12.68;5.97;;;36.00;36.00;;;;;;5094154;28;20020;-60
2022/08/27 11:42:13;;;;;;;15.85;5.40;;;36.20;36.90;;;;;;5066363;28;20044;-60
2022/08/27 11:44:45;;;;;;;18.00;5.65;;;37.00;36.50;;;;;;5094094;28;20028;-60
2022/08/27 11:47:21;;;;;;;15.38;4.72;;;36.60;34.10;;;;;;5094051;28;20028;-60
2022/08/27 11:49:49;;;;;;;13.48;5.97;;;37.30;36.30;;;;;;5093988;28;20089;-60
2022/08/27 11:52:33;;;;;;;16.02;5.13;;;37.10;32.60;;;;;;5094074;28;20032;-60
2022/08/27 11:55:30;;;;;;;11.70;5.25;;;37.30;33.00;;;;;;5094177;28;20036;-60
2022/08/27 11:58:03;;;;;;;12.15;5.18;;;37.90;33.90;;;;;;5078967;28;20036;-60
2022/08/27 12:00:32;;;;;;;16.90;5.07;;;37.40;32.00;;;;;;5097608;28;20028;-60
2022/08/27 12:03:03;;;;;;;16.48;5.00;;;36.90;33.90;;;;;;5097505;28;20028;-60
2022/08/27 12:05:48;;;;;;;15.35;5.07;;;36.90;33.90;;;;;;5097811;28;20035;-60
2022/08/27 12:08:20;;;;;;;15.57;4.82;;;37.30;35.40;;;;;;5097119;28;20036;-60
2022/08/27 12:10:55;;;;;;;14.82;4.95;;;37.70;30.30;;;;;;5097543;28;20103;-60
2022/08/27 12:13:58;;;;;;;15.00;5.07;;;37.60;32.20;;;;;;5097357;28;20483;-60
2022/08/27 12:16:50;;;;;;;11.30;4.95;;;37.30;32.70;;;;;;5097298;28;20097;-60
2022/08/27 12:19:35;;;;;;;14.55;5.07;;;37.50;32.10;;;;;;5117483;28;20019;-60
2022/08/27 12:22:08;;;;;;;16.98;5.70;;;37.80;33.20;;;;;;5117689;28;20061;-60
2022/08/27 12:24:47;;;;;;;14.52;5.20;;;37.90;31.20;;;;;;5117506;28;20358;-60
2022/08/27 12:27:25;;;;;;;30.02;5.03;;;37.70;32.60;;;;;;5114725;28;20038;-60
2022/08/27 12:29:57;;;;;;;10.40;4.70;;;37.70;34.80;;;;;;5096995;28;20035;-60
2022/08/27 12:32:31;;;;;;;9.82;4.88;;;37.10;31.50;;;;;;5097055;28;20415;-60
2022/08/27 12:35:03;;;;;;;18.92;5.43;;;37.10;29.40;;;;;;5096758;28;20425;-60
2022/08/27 12:37:41;;;;;;;17.88;5.65;;;37.00;36.50;;;;;;5096806;28;20378;-60
2022/08/27 12:40:29;;;;;;;12.68;4.70;;;37.20;29.90;;;;;;5097016;28;20038;-60
2022/08/27 12:43:20;;;;;;;12.38;5.00;;;37.20;34.90;;;;;;5096894;28;20480;-60
2022/08/27 12:45:56;;;;;;;14.10;4.57;;;36.90;30.00;;;;;;5096811;28;20271;-60
2022/08/27 12:48:28;;;;;;;14.93;4.68;;;36.70;28.70;;;;;;5074470;28;20045;-61
2022/08/27 12:50:57;;;;;;;15.02;5.72;;;37.20;29.60;;;;;;5076371;28;20025;-60
2022/08/27 12:53:43;;;;;;;13.25;5.22;;;37.70;31.50;;;;;;5076431;28;20382;-60